Time;durP1;ratioP1;P1;durP2;ratioP2;P2;SDS_P1;SDS_P2;PMS_P1;PMS_P2;Temp;Humidity;BMP_temperature;BMP_pressure;BME280_temperature;BME280_humidity;BME280_pressure;Samples;Min_cycle;Max_cycle;Signal;HPM_P1;HPM_P2
2021/07/16 00:04:36;;;;;;;13.03;11.60;;;;;;;22.42;100.00;100169.41;20905427;28;20269;-72
2021/07/16 00:14:37;;;;;;;14.17;12.90;;;;;;;22.56;100.00;100171.38;20903579;28;20269;-73
2021/07/16 00:24:37;;;;;;;12.17;10.97;;;;;;;22.60;100.00;100227.94;20903135;28;20595;-72
2021/07/16 00:34:38;;;;;;;11.57;10.47;;;;;;;22.72;100.00;100257.44;20904279;28;20219;-72
2021/07/16 00:44:38;;;;;;;11.50;10.40;;;;;;;22.83;100.00;100285.13;20918230;28;20231;-72
2021/07/16 00:54:39;;;;;;;12.87;11.57;;;;;;;23.28;100.00;100276.19;20918824;28;20245;-72
2021/07/16 01:04:39;;;;;;;13.67;12.13;;;;;;;23.26;100.00;100272.81;20917978;28;20387;-72
2021/07/16 01:14:40;;;;;;;12.73;9.80;;;;;;;23.25;100.00;100298.34;20900859;28;20234;-73
2021/07/16 01:24:40;;;;;;;14.13;12.43;;;;;;;23.45;100.00;100309.59;20915274;28;20232;-72
2021/07/16 01:34:41;;;;;;;15.67;14.17;;;;;;;23.83;100.00;100324.13;20917122;28;20220;-72
2021/07/16 01:44:42;;;;;;;15.67;14.10;;;;;;;23.87;100.00;100262.75;20914858;28;20219;-72
2021/07/16 01:54:43;;;;;;;15.13;13.53;;;;;;;23.84;100.00;100292.25;20913262;28;20232;-72
2021/07/16 02:04:43;;;;;;;15.40;14.03;;;;;;;23.79;100.00;100290.06;20914793;28;20675;-72
2021/07/16 02:14:44;;;;;;;14.80;13.23;;;;;;;23.98;100.00;100297.75;20914239;28;20230;-72
2021/07/16 02:24:44;;;;;;;13.63;12.23;;;;;;;24.08;100.00;100332.91;20910877;28;20223;-71
2021/07/16 02:34:45;;;;;;;12.40;11.20;;;;;;;23.80;100.00;100310.84;20911342;28;20252;-72
2021/07/16 02:44:46;;;;;;;10.00;8.73;;;;;;;23.77;100.00;100313.97;20893511;28;20259;-72
2021/07/16 02:54:53;;;;;;;7.63;6.83;;;;;;;23.22;100.00;100301.41;20910693;28;20250;-72
2021/07/16 03:04:55;;;;;;;5.87;5.10;;;;;;;23.42;100.00;100284.59;20907464;28;20243;-72
2021/07/16 03:14:55;;;;;;;10.90;8.13;;;;;;;23.16;100.00;100282.25;20908003;28;20250;-73
2021/07/16 03:24:56;;;;;;;10.17;8.40;;;;;;;23.18;100.00;100272.88;20906941;28;20216;-72
2021/07/16 03:34:56;;;;;;;6.30;5.63;;;;;;;23.19;100.00;100244.59;20907626;28;20291;-72
2021/07/16 03:44:57;;;;;;;8.47;6.63;;;;;;;22.95;100.00;100263.81;20907057;28;20230;-72
2021/07/16 03:54:57;;;;;;;8.50;6.57;;;;;;;23.13;100.00;100250.78;20906297;28;20249;-73
2021/07/16 04:04:58;;;;;;;7.87;7.13;;;;;;;23.09;100.00;100227.66;20905574;28;20808;-72
2021/07/16 04:14:58;;;;;;;12.43;8.40;;;;;;;23.10;100.00;100217.59;20905033;28;20605;-73
2021/07/16 04:24:59;;;;;;;12.90;8.87;;;;;;;23.26;100.00;100202.00;20903519;28;20229;-73
2021/07/16 04:42:56;;;;;;;12.93;10.13;;;;;;;22.89;100.00;100156.53;20687173;27;8619878;-69
2021/07/16 04:52:57;;;;;;;11.67;10.03;;;;;;;23.14;100.00;100199.91;20958484;28;20246;-70
2021/07/16 05:32:57;;;;;;;8.90;8.03;;;;;;;25.64;98.03;100221.47;20515885;27;8619561;-68
2021/07/16 05:43:04;;;;;;;10.13;7.40;;;;;;;27.13;97.19;100305.69;20806669;28;20224;-67
2021/07/16 05:53:05;;;;;;;7.30;6.40;;;;;;;27.30;93.12;100334.38;20810132;28;20526;-67
2021/07/16 06:03:05;;;;;;;8.03;7.23;;;;;;;26.08;100.00;100369.66;20808974;28;20224;-68
2021/07/16 06:23:16;;;;;;;10.40;8.03;;;;;;;25.83;100.00;100382.09;20606005;27;8519583;-69
2021/07/16 06:33:17;;;;;;;8.00;7.30;;;;;;;25.05;100.00;100380.97;20892831;28;20226;-68
2021/07/16 06:43:17;;;;;;;11.33;8.30;;;;;;;24.39;100.00;100390.09;20892373;28;20234;-69
2021/07/16 06:53:18;;;;;;;12.90;8.68;;;;;;;23.95;100.00;100376.31;20891406;28;20229;-72
2021/07/16 07:03:18;;;;;;;17.50;11.90;;;;;;;22.76;100.00;100324.97;20889366;28;20220;-69
2021/07/16 07:23:26;;;;;;;26.23;20.07;;;;;;;22.46;100.00;100318.44;20610261;27;8303828;-60
2021/07/16 07:43:35;;;;;;;91.30;34.23;;;;;;;25.12;100.00;100351.00;20529455;27;8267119;-67
2021/07/16 07:53:36;;;;;;;36.30;24.37;;;;;;;25.48;100.00;100395.53;20826681;28;20219;-65
2021/07/16 08:03:37;;;;;;;41.83;25.80;;;;;;;29.82;100.00;100407.09;20809944;28;20581;-64
2021/07/16 08:13:38;;;;;;;39.97;20.67;;;;;;;30.50;72.80;100374.16;20809072;28;20224;-66
2021/07/16 08:23:38;;;;;;;19.27;13.50;;;;;;;28.58;80.01;100366.13;20807143;28;20219;-66
2021/07/16 08:43:48;;;;;;;23.13;12.93;;;;;;;28.29;84.76;100384.75;20591522;28;8701832;-71
2021/07/16 09:10:28;;;;;;;9.60;6.50;;;;;;;23.69;100.00;100363.06;20607754;27;8336923;-60
2021/07/16 09:20:28;;;;;;;7.90;5.97;;;;;;;24.63;100.00;100402.63;20892448;28;20238;-62
2021/07/16 09:30:30;;;;;;;9.97;6.27;;;;;;;25.41;100.00;100419.22;20955795;28;20223;-64
2021/07/16 09:40:42;;;;;;;10.20;6.10;;;;;;;26.32;100.00;100422.31;20955650;28;20705;-60
2021/07/16 09:50:42;;;;;;;11.27;7.33;;;;;;;27.39;100.00;100423.59;20972854;28;20912;-59
2021/07/16 10:00:43;;;;;;;10.70;7.60;;;;;;;27.34;100.00;100412.41;20970849;28;20236;-66
2021/07/16 10:10:45;;;;;;;9.17;6.80;;;;;;;28.12;100.00;100415.56;20969858;28;20219;-61
2021/07/16 10:20:45;;;;;;;8.00;6.60;;;;;;;28.99;100.00;100429.84;20919251;28;20296;-65
2021/07/16 10:30:46;;;;;;;6.70;5.30;;;;;;;28.10;100.00;100412.19;20913847;28;20311;-68
2021/07/16 10:40:46;;;;;;;9.20;6.10;;;;;;;27.76;100.00;100410.47;20913064;28;20306;-69
2021/07/16 10:50:49;;;;;;;6.23;5.60;;;;;;;27.66;100.00;100415.47;20913702;28;20707;-72
2021/07/16 11:00:56;;;;;;;7.40;5.80;;;;;;;27.77;100.00;100412.16;20911146;28;20244;-63
2021/07/16 11:11:19;;;;;;;9.80;6.47;;;;;;;29.21;100.00;100427.69;20911741;28;20220;-62
2021/07/16 11:21:39;;;;;;;8.53;6.63;;;;;;;28.94;100.00;100426.94;20910841;28;20219;-69
2021/07/16 11:31:40;;;;;;;4.87;4.47;;;;;;;29.51;100.00;100436.25;20908706;28;20215;-63
2021/07/16 11:41:41;;;;;;;5.20;4.27;;;;;;;29.20;100.00;100436.16;20908085;28;20223;-67
2021/07/16 11:51:41;;;;;;;4.27;3.97;;;;;;;28.74;100.00;100431.56;20908425;28;20310;-62
2021/07/16 12:01:42;;;;;;;4.50;4.10;;;;;;;29.56;100.00;100430.94;20906318;28;20243;-61
2021/07/16 12:11:42;;;;;;;4.17;3.80;;;;;;;30.41;100.00;100453.47;20905672;28;20230;-63
2021/07/16 12:21:43;;;;;;;4.22;3.88;;;;;;;30.70;100.00;100455.53;20905063;28;20226;-60
2021/07/16 12:31:49;;;;;;;4.18;3.78;;;;;;;30.52;100.00;100452.72;20904246;28;20298;-71
2021/07/16 12:41:50;;;;;;;9.30;8.40;;;;;;;30.41;100.00;100459.81;20903539;28;20730;-61
2021/07/16 12:51:50;;;;;;;3.63;3.42;;;;;;;30.48;100.00;100456.16;20904549;28;20247;-60
2021/07/16 13:01:53;;;;;;;3.28;3.08;;;;;;;30.64;100.00;100450.13;20902359;28;20598;-64
2021/07/16 13:12:22;;;;;;;3.15;2.95;;;;;;;29.89;92.21;100436.25;20903483;28;20639;-62
2021/07/16 13:22:23;;;;;;;3.22;2.95;;;;;;;29.22;100.00;100417.53;20902864;28;20223;-62
2021/07/16 13:32:24;;;;;;;3.50;3.20;;;;;;;29.61;100.00;100406.34;20901078;28;20591;-65
2021/07/16 13:42:25;;;;;;;3.78;3.20;;;;;;;29.52;96.10;100399.44;20901242;28;20215;-63
2021/07/16 13:52:26;;;;;;;3.23;3.03;;;;;;;29.13;100.00;100391.34;20909057;28;20223;-64
2021/07/16 14:02:26;;;;;;;4.57;3.00;;;;;;;28.96;97.81;100396.50;20915447;28;20243;-64
2021/07/16 14:12:26;;;;;;;3.77;3.57;;;;;;;28.97;98.88;100399.03;20916149;28;20269;-63
2021/07/16 14:22:27;;;;;;;5.07;4.50;;;;;;;28.90;95.36;100392.69;20914425;28;20215;-64
2021/07/16 14:32:28;;;;;;;5.17;4.27;;;;;;;29.18;97.44;100391.53;20914856;28;20241;-63
2021/07/16 14:42:28;;;;;;;5.55;4.97;;;;;;;29.10;99.69;100389.06;20913895;28;20673;-64
2021/07/16 14:52:28;;;;;;;4.97;4.67;;;;;;;29.43;97.75;100387.00;20913501;28;20711;-63
2021/07/16 15:02:29;;;;;;;5.77;5.27;;;;;;;29.21;91.21;100393.88;20911146;28;20243;-65
2021/07/16 15:12:30;;;;;;;5.78;5.28;;;;;;;29.54;100.00;100389.06;20909338;28;20326;-68
2021/07/16 15:22:31;;;;;;;5.18;4.78;;;;;;;29.44;94.28;100388.72;20905462;28;20592;-67
2021/07/16 15:32:33;;;;;;;5.28;4.90;;;;;;;29.94;92.33;100388.81;20909015;28;20223;-60
2021/07/16 15:42:34;;;;;;;5.28;4.88;;;;;;;29.73;91.41;100382.59;20906538;28;20284;-59
2021/07/16 15:52:36;;;;;;;5.43;5.03;;;;;;;30.15;96.62;100382.94;20906910;28;20227;-65
2021/07/16 16:02:36;;;;;;;5.43;4.95;;;;;;;30.07;94.70;100383.19;20904961;28;20270;-60
2021/07/16 16:12:37;;;;;;;5.55;5.00;;;;;;;30.64;92.01;100378.47;20902419;28;20302;-59
2021/07/16 16:22:38;;;;;;;5.85;5.32;;;;;;;30.59;87.27;100378.31;20905285;28;20606;-61
2021/07/16 16:32:38;;;;;;;5.93;5.33;;;;;;;29.76;83.91;100391.47;20905032;28;20220;-59
2021/07/16 16:42:39;;;;;;;5.63;5.00;;;;;;;29.63;87.17;100384.13;20904546;28;20227;-63
2021/07/16 16:52:40;;;;;;;5.43;4.93;;;;;;;29.53;86.74;100390.13;20903950;28;20215;-65
2021/07/16 17:02:46;;;;;;;4.43;4.13;;;;;;;30.05;87.48;100390.88;20902093;28;20685;-58
2021/07/16 17:12:47;;;;;;;4.90;4.30;;;;;;;30.66;89.89;100384.63;20902643;28;20318;-60
2021/07/16 17:22:48;;;;;;;11.18;6.20;;;;;;;31.90;88.64;100388.75;20902284;28;20641;-59
2021/07/16 17:32:49;;;;;;;7.93;5.28;;;;;;;32.23;92.53;100394.63;20895485;28;20661;-61
2021/07/16 17:42:52;;;;;;;3.95;3.60;;;;;;;32.12;93.52;100400.94;20917227;28;20628;-63
2021/07/16 17:52:52;;;;;;;4.13;3.70;;;;;;;31.90;94.81;100411.66;20958750;28;20707;-64
2021/07/16 18:03:00;;;;;;;4.45;3.70;;;;;;;31.14;97.02;100415.91;20992043;28;20300;-65
2021/07/16 18:13:08;;;;;;;4.50;4.10;;;;;;;30.06;92.35;100415.41;20981084;28;20235;-65
2021/07/16 18:23:15;;;;;;;4.40;4.00;;;;;;;29.17;97.45;100403.59;20911489;28;20234;-65
2021/07/16 18:33:16;;;;;;;4.47;4.07;;;;;;;28.66;100.00;100402.44;20883807;28;20219;-65
2021/07/16 18:43:17;;;;;;;4.70;4.30;;;;;;;27.92;100.00;100421.00;20926023;28;20223;-64
2021/07/16 18:53:19;;;;;;;5.10;4.60;;;;;;;26.95;100.00;100426.75;20906441;28;20223;-66
2021/07/16 19:03:20;;;;;;;5.93;5.33;;;;;;;26.37;100.00;100438.97;20875804;28;20699;-66
2021/07/16 19:13:20;;;;;;;6.53;5.93;;;;;;;26.00;100.00;100435.44;20892535;28;20277;-63
2021/07/16 19:23:21;;;;;;;6.33;5.73;;;;;;;25.67;100.00;100442.47;20912190;28;20768;-63
2021/07/16 19:33:21;;;;;;;7.90;6.83;;;;;;;25.47;100.00;100440.34;20890724;28;20212;-65
2021/07/16 19:43:22;;;;;;;7.57;6.97;;;;;;;25.27;100.00;100452.88;20874566;28;20223;-65
2021/07/16 19:53:22;;;;;;;8.87;7.17;;;;;;;25.06;100.00;100452.81;20888967;28;20373;-63
2021/07/16 20:03:23;;;;;;;9.33;8.50;;;;;;;25.01;100.00;100442.44;20878542;28;20547;-64
2021/07/16 20:13:24;;;;;;;9.17;8.37;;;;;;;24.94;100.00;100443.41;20884671;28;20223;-64
2021/07/16 20:23:28;;;;;;;11.17;9.90;;;;;;;24.81;100.00;100438.56;20890850;28;20604;-65
2021/07/16 20:33:29;;;;;;;12.20;9.53;;;;;;;24.81;100.00;100445.91;20876082;28;20223;-64
2021/07/16 20:43:29;;;;;;;11.40;10.38;;;;;;;24.76;100.00;100447.31;20893994;28;20225;-64
2021/07/16 20:53:31;;;;;;;11.43;10.23;;;;;;;24.64;100.00;100465.19;20870707;28;20223;-64
2021/07/16 21:03:32;;;;;;;12.00;10.83;;;;;;;24.34;100.00;100447.91;20891450;28;20534;-64
2021/07/16 21:13:32;;;;;;;12.60;11.30;;;;;;;24.10;100.00;100439.06;20870272;28;20233;-65
2021/07/16 21:23:33;;;;;;;12.77;11.30;;;;;;;23.98;100.00;100436.78;20889032;28;20772;-65
2021/07/16 21:33:35;;;;;;;13.03;11.73;;;;;;;23.92;100.00;100448.38;20878792;28;20233;-68
2021/07/16 21:43:36;;;;;;;14.23;10.93;;;;;;;23.86;100.00;100465.50;20881004;28;20358;-63
2021/07/16 21:53:36;;;;;;;13.47;12.00;;;;;;;23.64;100.00;100463.59;20887056;28;20231;-66
2021/07/16 22:03:37;;;;;;;15.27;12.10;;;;;;;23.55;100.00;100457.31;20869677;28;20984;-64
2021/07/16 22:13:37;;;;;;;17.87;13.40;;;;;;;23.43;100.00;100452.41;20897895;28;20223;-62
2021/07/16 22:23:40;;;;;;;17.53;14.20;;;;;;;23.39;100.00;100435.59;20881637;28;20233;-63
2021/07/16 22:33:41;;;;;;;16.33;13.60;;;;;;;23.34;100.00;100438.84;20903410;28;20690;-61
2021/07/16 22:43:43;;;;;;;16.77;13.13;;;;;;;23.22;100.00;100423.94;20882216;28;20253;-62
2021/07/16 22:53:43;;;;;;;20.73;13.90;;;;;;;23.24;100.00;100404.69;20898840;28;20227;-63
2021/07/16 23:03:44;;;;;;;16.47;14.20;;;;;;;23.26;100.00;100411.69;20885674;28;20818;-63
2021/07/16 23:13:44;;;;;;;18.93;14.40;;;;;;;23.16;100.00;100412.91;20894291;28;20219;-63
2021/07/16 23:23:45;;;;;;;22.63;16.13;;;;;;;23.16;100.00;100413.78;20895140;28;20866;-63
2021/07/16 23:33:46;;;;;;;21.00;16.10;;;;;;;23.12;100.00;100420.59;20880411;28;21041;-62
2021/07/16 23:43:47;;;;;;;24.77;18.17;;;;;;;23.14;100.00;100423.13;20897668;28;20469;-62
2021/07/16 23:53:48;;;;;;;26.17;19.87;;;;;;;23.26;100.00;100408.94;20874391;28;20221;-61
